Forest City, NC

4:36 AM EDT on September 03, 2015 (GMT -0400)
Forest City-Dunbar Elementary | | Change Station
CLOSE
Current Station
Personal Weather Station
Location: Forest City, NC
Elevation: 966 ft
Nearby Weather Stations

Elev 966 ft 35.35 °N, 81.87 °W | Updated 2 seconds ago

Clear
Clear
73.3 °F
Feels Like 72 °F
N
0.0
Wind Variable Wind from West
Gusts 0.0 mph

Today
High -- | Low -- °F
--% Chance of Precip.
Yesterday
High -- | Low -- °F
Precip. -- in
7:01 AM 7:51 PM
Waning Gibbous, 72% visible
Pressure 30.00 in
Visibility 10.0 miles
Clouds Clear
Heat Index 72 °F
Dew Point 69 °F
Humidity 85%
Rainfall 0.00 in
Snow Depth Not available.
UV 0 out of 12
Pollen 8.70 out of 12
Air Quality Not available.
Flu Activity Not available.
METAR KFQD 030815Z AUTO 00000KT 10SM CLR 23/19 A3000 RMK AO2 T02330189
Pressure 30.00 in
Visibility 10.0 miles
Clouds Clear
Heat Index 72 °F
Dew Point 69 °F
Humidity 85%
Rainfall 0.00 in
Snow Depth Not available.
UV 0 out of 12
Pollen 8.70 out of 12
Air Quality Not available.
Flu Activity Not available.
METAR KFQD 030815Z AUTO 00000KT 10SM CLR 23/19 A3000 RMK AO2 T02330189

10-Day Weather Forecast

×

Almanac

Astronomy

Sep. 03, 2015 Rise Set
Actual Time
Civil Twilight
Nautical Twilight
Astronomical Twilight
Moon
Length of Visible Light
Length of Day
Tomorrow will be .
, % of the Moon is Illuminated

Today's Extremes

State Highs State Lows

Community

WunderPhotos

Upload Photos

1,851,919 photos uploaded!

WunderBlogs® & News

Nearby

Air Quality

  Air Quality AQ Index Pollutant
Not available.

Snow Depth

Station Depth Elevation

Earthquake Activity

City Distance Mag. Time & Date
Minimum magnitude displayed is 2.5.

Coastal Water Temperatures

Place Temperature

Stations

Nearby Weather Stations

Station Location Temp. Windchill Dew Point Humidity Wind Precip. Elev Updated Type